createdAt,value
2022-12-17T00:03:23.680Z,101376.47
2022-12-17T00:09:04.291Z,101378.22
2022-12-17T00:14:44.540Z,101379.96
2022-12-17T00:20:24.302Z,101384.35
2022-12-17T00:26:04.310Z,101388.70
2022-12-17T00:31:44.569Z,101395.69
2022-12-17T00:37:24.515Z,101399.17
2022-12-17T00:43:04.427Z,101405.30
2022-12-17T00:48:44.325Z,101395.71
2022-12-17T00:54:24.792Z,101401.81
2022-12-17T01:00:05.197Z,101404.46
2022-12-17T01:05:45.610Z,101408.81
2022-12-17T01:11:32.708Z,101413.20
2022-12-17T01:17:12.679Z,101431.52
2022-12-17T01:22:53.258Z,101429.80
2022-12-17T01:28:35.501Z,101439.39
2022-12-17T01:34:15.536Z,101441.13
2022-12-17T01:39:55.573Z,101444.65
2022-12-17T01:45:37.822Z,101453.37
2022-12-17T01:51:23.814Z,101449.91
2022-12-17T01:57:06.916Z,101453.39
2022-12-17T02:02:46.844Z,101447.30
2022-12-17T02:08:37.943Z,101440.27
2022-12-17T02:14:25.696Z,101437.68
2022-12-17T02:20:28.237Z,101438.55
2022-12-17T02:26:16.003Z,101443.80
2022-12-17T02:31:58.588Z,101437.67
2022-12-17T02:37:39.238Z,101435.06
2022-12-17T02:43:20.886Z,101442.91
2022-12-17T02:49:02.354Z,101444.66
2022-12-17T02:54:42.707Z,101454.27
2022-12-17T03:00:22.524Z,101456.90
2022-12-17T03:06:02.525Z,101456.00
2022-12-17T03:11:42.574Z,101459.51
2022-12-17T03:17:23.035Z,101462.98
2022-12-17T03:23:02.784Z,101453.38
2022-12-17T03:28:44.357Z,101458.64
2022-12-17T03:34:24.234Z,101461.23
2022-12-17T03:40:04.481Z,101465.61
2022-12-17T03:45:45.122Z,101470.84
2022-12-17T03:51:26.454Z,101474.32
2022-12-17T03:57:09.585Z,101465.58
2022-12-17T04:02:49.050Z,101470.82
2022-12-17T04:08:29.500Z,101470.82
2022-12-17T04:14:09.369Z,101488.33
2022-12-17T04:19:49.341Z,101486.56
2022-12-17T04:25:29.725Z,101493.56
2022-12-17T04:31:10.696Z,101494.42
2022-12-17T04:36:50.814Z,101487.44
2022-12-17T04:42:31.203Z,101483.07
2022-12-17T04:48:11.167Z,101493.55
2022-12-17T04:53:50.827Z,101501.41
2022-12-17T04:59:24.411Z,101517.16
2022-12-17T05:05:04.422Z,101520.65
2022-12-17T05:10:44.429Z,101532.88
2022-12-17T05:16:28.108Z,101546.84
2022-12-17T05:22:08.283Z,101548.61
2022-12-17T05:27:48.519Z,101552.10
2022-12-17T05:33:34.390Z,101559.95
2022-12-17T05:39:14.602Z,101568.69
2022-12-17T05:44:54.367Z,101576.55
2022-12-17T05:50:34.740Z,101587.94
2022-12-17T05:56:17.043Z,101580.92
2022-12-17T06:01:57.362Z,101589.67
2022-12-17T06:07:37.523Z,101604.52
2022-12-17T06:13:26.965Z,101601.02
2022-12-17T06:19:07.387Z,101607.14
2022-12-17T06:24:48.365Z,101613.27
2022-12-17T06:30:28.443Z,101611.52
2022-12-17T06:36:08.400Z,101634.25
2022-12-17T06:41:48.552Z,101626.37
2022-12-17T06:47:28.910Z,101640.37
2022-12-17T06:53:08.756Z,101642.11
2022-12-17T06:58:42.675Z,101655.23
2022-12-17T07:04:22.566Z,101661.36
2022-12-17T07:10:02.455Z,101665.75
2022-12-17T07:15:43.845Z,101680.64
2022-12-17T07:21:24.928Z,101677.14
2022-12-17T07:27:06.957Z,101682.34
2022-12-17T07:32:46.936Z,101689.33
2022-12-17T07:38:35.454Z,101691.95
2022-12-17T07:44:16.929Z,101707.69
2022-12-17T07:49:58.543Z,101721.70
2022-12-17T07:55:40.848Z,101729.59
2022-12-17T08:01:26.020Z,101725.22
2022-12-17T08:07:12.252Z,101746.21
2022-12-17T08:12:52.028Z,101748.84
2022-12-17T08:18:34.709Z,101749.73
2022-12-17T08:24:14.989Z,101760.23
2022-12-17T08:29:56.938Z,101769.87
2022-12-17T08:35:40.391Z,101774.24
2022-12-17T08:41:25.200Z,101770.75
2022-12-17T08:47:06.704Z,101778.61
2022-12-17T08:52:48.655Z,101804.86
2022-12-17T08:58:33.126Z,101801.39
2022-12-17T09:04:15.591Z,101811.00
2022-12-17T09:09:58.138Z,101816.27
2022-12-17T09:15:39.002Z,101805.75
2022-12-17T09:21:25.797Z,101810.12
2022-12-17T09:27:08.218Z,101818.01
2022-12-17T09:32:49.462Z,101825.00
2022-12-17T09:38:35.091Z,101832.89
2022-12-17T09:48:32.856Z,101838.15
2022-12-17T09:54:22.795Z,101845.12
2022-12-17T10:00:05.848Z,101842.52
2022-12-17T10:05:58.842Z,101845.16
2022-12-17T10:11:54.433Z,101852.16
2022-12-17T10:23:33.352Z,101860.91
2022-12-17T10:29:15.626Z,101866.17
2022-12-17T10:35:05.308Z,101863.55
2022-12-17T10:40:54.181Z,101860.02
2022-12-17T10:46:37.027Z,101867.02
2022-12-17T10:52:19.037Z,101874.03
2022-12-17T10:58:06.171Z,101881.05
2022-12-17T11:04:17.346Z,101880.17
2022-12-17T11:10:19.797Z,101873.16
2022-12-17T11:16:16.747Z,101880.17
2022-12-17T11:22:06.717Z,101874.03
2022-12-17T11:27:53.308Z,101881.89
2022-12-17T11:33:47.972Z,101885.38
2022-12-17T11:39:51.869Z,101880.98
2022-12-17T11:45:39.804Z,101874.89
2022-12-17T11:51:42.478Z,101875.73
2022-12-17T11:57:33.039Z,101873.98
2022-12-17T12:03:27.123Z,101871.30
2022-12-17T12:09:26.677Z,101876.59
2022-12-17T12:15:40.162Z,101870.46
2022-12-17T12:21:36.181Z,101869.52
2022-12-17T12:33:47.425Z,101879.91
2022-12-17T12:39:29.338Z,101880.45
2022-12-17T12:45:26.800Z,101886.59
2022-12-17T12:51:17.710Z,101888.50
2022-12-17T12:57:06.744Z,101889.41
2022-12-17T13:02:52.016Z,101900.08
2022-12-17T13:08:36.574Z,101903.43
2022-12-17T13:14:01.726Z,101908.99
2022-12-17T13:19:47.789Z,101909.22
2022-12-17T13:25:31.071Z,101911.06
2022-12-17T13:30:54.570Z,101918.25
2022-12-17T13:36:42.660Z,101921.91
2022-12-17T13:42:06.623Z,101929.88
2022-12-17T13:47:41.541Z,101936.99
2022-12-17T13:53:04.127Z,101958.97
2022-12-17T13:58:39.449Z,101960.73
2022-12-17T14:04:07.139Z,101973.91
2022-12-17T14:09:47.177Z,101963.38
2022-12-17T14:15:21.104Z,101975.67
2022-12-17T14:20:46.566Z,101976.53
2022-12-17T14:26:09.593Z,101990.56
2022-12-17T14:31:41.231Z,101994.88
2022-12-17T14:37:11.708Z,101998.33
2022-12-17T14:42:37.728Z,102013.17
2022-12-17T14:48:14.423Z,102014.01
2022-12-17T14:53:47.689Z,102012.22
2022-12-17T14:59:10.384Z,102011.42
2022-12-17T15:04:34.458Z,102018.38
2022-12-17T15:09:58.211Z,102023.67
2022-12-17T15:15:22.348Z,102034.22
2022-12-17T15:20:44.653Z,102035.09
2022-12-17T15:26:08.412Z,102037.72
2022-12-17T15:31:35.392Z,102047.27
2022-12-17T15:36:55.367Z,102043.72
2022-12-17T15:42:35.282Z,102045.45
2022-12-17T15:47:51.238Z,102047.26
2022-12-17T15:53:14.545Z,102040.21
2022-12-17T15:58:37.134Z,102048.95
2022-12-17T16:04:00.758Z,102055.91
2022-12-17T16:09:27.257Z,102067.23
2022-12-17T16:14:49.433Z,102074.27
2022-12-17T16:20:12.360Z,102082.09
2022-12-17T16:25:34.918Z,102090.02
2022-12-17T16:31:07.025Z,102092.65
2022-12-17T16:36:34.828Z,102097.03
2022-12-17T16:41:57.686Z,102097.02
2022-12-17T16:47:19.891Z,102094.41
2022-12-17T16:52:42.084Z,102104.89
2022-12-17T16:58:04.280Z,102109.28
2022-12-17T17:03:26.673Z,102108.45
2022-12-17T17:08:50.554Z,102113.72
2022-12-17T17:14:13.603Z,102116.38
2022-12-17T17:19:36.208Z,102123.39
2022-12-17T17:24:58.419Z,102138.27
2022-12-17T17:30:21.795Z,102146.15
2022-12-17T17:35:44.043Z,102161.90
2022-12-17T17:41:08.031Z,102157.52
2022-12-17T17:46:32.129Z,102169.83
2022-12-17T17:52:12.546Z,102156.70
2022-12-17T17:57:21.544Z,102171.53
2022-12-17T18:02:44.544Z,102173.28
2022-12-17T18:08:07.144Z,102189.05
2022-12-17T18:13:47.074Z,102196.92
2022-12-17T18:19:13.156Z,102206.55
2022-12-17T18:24:37.052Z,102211.84
2022-12-17T18:29:59.300Z,102214.42
2022-12-17T18:35:21.921Z,102213.54
2022-12-17T18:40:44.086Z,102209.17
2022-12-17T18:46:08.166Z,102227.55
2022-12-17T18:51:30.537Z,102229.29
2022-12-17T18:57:02.577Z,102238.03
2022-12-17T19:02:23.049Z,102249.34
2022-12-17T19:07:47.592Z,102261.56
2022-12-17T19:13:11.583Z,102257.19
2022-12-17T19:18:35.380Z,102260.64
2022-12-17T19:23:59.789Z,102257.13
2022-12-17T19:29:24.645Z,102263.19
2022-12-17T19:34:47.221Z,102261.41
2022-12-17T19:40:09.825Z,102263.15
2022-12-17T19:45:32.445Z,102265.77
2022-12-17T19:51:03.878Z,102271.02
2022-12-17T19:56:34.717Z,102264.02
2022-12-17T20:02:02.081Z,102276.27
2022-12-17T20:07:24.890Z,102290.28
2022-12-17T20:12:47.367Z,102304.28
2022-12-17T20:18:09.636Z,102310.41
2022-12-17T20:23:31.912Z,102309.53
2022-12-17T20:28:54.805Z,102326.15
2022-12-17T20:34:23.551Z,102334.02
2022-12-17T20:39:45.887Z,102343.64
2022-12-17T20:45:08.690Z,102354.14
2022-12-17T20:50:30.969Z,102355.88
2022-12-17T20:55:53.307Z,102357.62
2022-12-17T21:01:31.791Z,102349.76
2022-12-17T21:06:57.552Z,102353.25
2022-12-17T21:12:20.395Z,102364.63
2022-12-17T21:17:42.586Z,102361.05
2022-12-17T21:23:04.922Z,102364.60
2022-12-17T21:28:27.688Z,102368.92
2022-12-17T21:33:55.577Z,102380.28
2022-12-17T21:39:32.397Z,102372.51
2022-12-17T21:44:55.163Z,102382.88
2022-12-17T21:50:17.771Z,102388.91
2022-12-17T21:55:40.032Z,102394.10
2022-12-17T22:01:06.354Z,102389.63
2022-12-17T22:06:37.484Z,102382.53
2022-12-17T22:11:58.883Z,102390.28
2022-12-17T22:17:31.390Z,102402.39
2022-12-17T22:22:53.645Z,102400.45
2022-12-17T22:28:17.355Z,102413.48
2022-12-17T22:34:39.360Z,102415.22
2022-12-17T22:44:06.286Z,102426.56
2022-12-17T22:44:51.175Z,102426.52
2022-12-17T22:49:54.087Z,102422.92
2022-12-17T22:55:17.774Z,102434.16
2022-12-17T23:00:44.193Z,102441.88
2022-12-17T23:06:16.012Z,102449.65
2022-12-17T23:11:40.867Z,102448.66
2022-12-17T23:17:03.275Z,102457.34
2022-12-17T23:22:25.500Z,102463.42
2022-12-17T23:27:49.345Z,102466.05
2022-12-17T23:33:11.635Z,102468.69
2022-12-17T23:38:33.857Z,102472.19
2022-12-17T23:43:57.344Z,102477.37
2022-12-17T23:49:21.258Z,102495.65
2022-12-17T23:54:43.937Z,102496.45
